Time;durP1;ratioP1;P1;durP2;ratioP2;P2;SDS_P1;SDS_P2;PMS_P1;PMS_P2;Temp;Humidity;BMP_temperature;BMP_pressure;BME280_temperature;BME280_humidity;BME280_pressure;Samples;Min_cycle;Max_cycle;Signal;HPM_P1;HPM_P2
2021/06/11 00:01:15;;;;;;;5.77;5.27;;;;;;;;;;5140904;27;20223;-71
2021/06/11 00:03:42;;;;;;;5.57;5.07;;;;;;;;;;5141053;27;20220;-71
2021/06/11 00:06:09;;;;;;;6.27;5.63;;;;;;;;;;5141272;27;20218;-71
2021/06/11 00:08:38;;;;;;;6.00;5.43;;;;;;;;;;5141174;27;20215;-71
2021/06/11 00:11:05;;;;;;;6.00;5.50;;;;;;;;;;5139959;27;20203;-71
2021/06/11 00:13:32;;;;;;;5.93;5.33;;;;;;;;;;5139874;27;20202;-71
2021/06/11 00:15:59;;;;;;;5.57;5.17;;;;;;;;;;5141068;27;20214;-71
2021/06/11 00:18:27;;;;;;;5.67;5.00;;;;;;;;;;5140740;27;20259;-71
2021/06/11 00:20:55;;;;;;;7.00;5.43;;;;;;;;;;5140426;27;20211;-71
2021/06/11 00:23:23;;;;;;;5.53;5.03;;;;;;;;;;5140048;27;20227;-71
2021/06/11 00:25:51;;;;;;;5.73;5.23;;;;;;;;;;5139972;27;20207;-71
2021/06/11 00:28:19;;;;;;;6.20;5.60;;;;;;;;;;5139901;27;20263;-71
2021/06/11 00:30:46;;;;;;;5.80;5.30;;;;;;;;;;5140285;27;20801;-69
2021/06/11 00:33:13;;;;;;;5.80;5.13;;;;;;;;;;5140613;27;20304;-71
2021/06/11 00:35:41;;;;;;;6.33;5.73;;;;;;;;;;5141399;27;20210;-71
2021/06/11 00:38:08;;;;;;;5.63;5.13;;;;;;;;;;5141281;27;20209;-71
2021/06/11 00:40:36;;;;;;;5.97;5.47;;;;;;;;;;5140654;27;20210;-70
2021/06/11 00:43:11;;;;;;;5.73;5.23;;;;;;;;;;5140630;27;20696;-70
2021/06/11 00:45:38;;;;;;;5.50;5.10;;;;;;;;;;5140915;27;20204;-70
2021/06/11 00:48:06;;;;;;;6.30;5.70;;;;;;;;;;5140919;27;20205;-70
2021/06/11 00:50:34;;;;;;;6.17;5.67;;;;;;;;;;5140559;27;20265;-70
2021/06/11 00:53:02;;;;;;;6.87;6.20;;;;;;;;;;5140133;27;20218;-70
2021/06/11 00:55:29;;;;;;;6.27;5.73;;;;;;;;;;5139812;27;20205;-70
2021/06/11 00:57:57;;;;;;;6.03;5.53;;;;;;;;;;5139929;27;20201;-70
2021/06/11 01:00:25;;;;;;;6.37;5.87;;;;;;;;;;5139205;27;20207;-70
2021/06/11 01:02:52;;;;;;;6.00;5.50;;;;;;;;;;5139206;27;20268;-71
2021/06/11 01:05:20;;;;;;;6.40;5.90;;;;;;;;;;5138799;27;20211;-70
2021/06/11 01:07:48;;;;;;;6.87;5.80;;;;;;;;;;5139208;27;20204;-71
2021/06/11 01:10:16;;;;;;;6.43;5.50;;;;;;;;;;5138239;27;20215;-70
2021/06/11 01:12:44;;;;;;;6.77;6.00;;;;;;;;;;5136465;27;20273;-70
2021/06/11 01:15:12;;;;;;;7.20;5.90;;;;;;;;;;5138076;27;20204;-70
2021/06/11 01:17:41;;;;;;;5.97;5.47;;;;;;;;;;5138786;27;20208;-70
2021/06/11 01:20:09;;;;;;;5.93;5.43;;;;;;;;;;5138585;27;20204;-70
2021/06/11 01:22:42;;;;;;;6.40;5.90;;;;;;;;;;5138560;27;20229;-70
2021/06/11 01:25:10;;;;;;;5.83;5.33;;;;;;;;;;5139630;27;20208;-70
2021/06/11 01:27:41;;;;;;;6.70;5.93;;;;;;;;;;5139789;27;20208;-70
2021/06/11 01:30:10;;;;;;;6.57;5.97;;;;;;;;;;5139665;27;20296;-70
2021/06/11 01:32:38;;;;;;;6.60;6.00;;;;;;;;;;5140115;27;20249;-71
2021/06/11 01:35:07;;;;;;;7.03;5.83;;;;;;;;;;5139762;27;20229;-71
2021/06/11 01:37:35;;;;;;;7.50;5.83;;;;;;;;;;5139250;27;20712;-69
2021/06/11 01:40:05;;;;;;;7.27;6.30;;;;;;;;;;5138743;27;20323;-70
2021/06/11 01:42:34;;;;;;;6.57;5.87;;;;;;;;;;5138098;27;20253;-69
2021/06/11 01:45:07;;;;;;;6.17;5.57;;;;;;;;;;5138336;27;20227;-70
2021/06/11 01:47:36;;;;;;;6.83;6.23;;;;;;;;;;5139046;27;20204;-72
2021/06/11 01:50:04;;;;;;;6.03;5.53;;;;;;;;;;5138626;27;20204;-70
2021/06/11 01:52:31;;;;;;;6.40;5.80;;;;;;;;;;5139068;27;20225;-70
2021/06/11 01:54:59;;;;;;;6.10;5.53;;;;;;;;;;5138624;27;20197;-70
2021/06/11 01:57:27;;;;;;;6.93;5.87;;;;;;;;;;5138845;27;20231;-70
2021/06/11 01:59:55;;;;;;;5.90;5.40;;;;;;;;;;5138937;27;20239;-71
2021/06/11 02:02:24;;;;;;;6.80;6.20;;;;;;;;;;5139355;27;20224;-70
2021/06/11 02:04:51;;;;;;;5.40;5.00;;;;;;;;;;5139190;27;20587;-70
2021/06/11 02:07:19;;;;;;;5.90;5.40;;;;;;;;;;5138864;27;20216;-70
2021/06/11 02:09:47;;;;;;;6.13;5.27;;;;;;;;;;5139304;27;20236;-71
2021/06/11 02:12:14;;;;;;;6.33;5.63;;;;;;;;;;5137431;27;20222;-70
2021/06/11 02:14:42;;;;;;;5.57;5.07;;;;;;;;;;5138300;27;20259;-70
2021/06/11 02:17:09;;;;;;;7.50;5.33;;;;;;;;;;5138564;27;20609;-70
2021/06/11 02:19:39;;;;;;;5.63;5.20;;;;;;;;;;5138652;27;20210;-70
2021/06/11 02:22:06;;;;;;;5.30;4.80;;;;;;;;;;5138426;27;20229;-70
2021/06/11 02:24:34;;;;;;;5.83;5.33;;;;;;;;;;5138508;27;20230;-70
2021/06/11 02:27:01;;;;;;;6.07;5.40;;;;;;;;;;5137913;27;20203;-70
2021/06/11 02:29:29;;;;;;;7.70;6.20;;;;;;;;;;5137850;27;20208;-70
2021/06/11 02:31:56;;;;;;;5.87;5.37;;;;;;;;;;5137956;27;20237;-70
2021/06/11 02:34:23;;;;;;;6.37;5.87;;;;;;;;;;5137681;27;20201;-70
2021/06/11 02:36:52;;;;;;;5.80;5.30;;;;;;;;;;5137781;27;20212;-70
2021/06/11 02:39:19;;;;;;;6.30;5.70;;;;;;;;;;5137783;28;20205;-70
2021/06/11 02:41:48;;;;;;;7.60;5.90;;;;;;;;;;5137526;28;20591;-70
2021/06/11 02:44:16;;;;;;;5.43;5.03;;;;;;;;;;5137054;28;20228;-70
2021/06/11 02:46:46;;;;;;;8.30;5.30;;;;;;;;;;5137879;28;20200;-70
2021/06/11 02:49:20;;;;;;;5.40;5.00;;;;;;;;;;5137652;28;20200;-70
2021/06/11 02:51:48;;;;;;;6.07;5.53;;;;;;;;;;5137984;28;20699;-70
2021/06/11 02:54:18;;;;;;;5.73;5.23;;;;;;;;;;5138017;28;20201;-70
2021/06/11 02:56:47;;;;;;;6.53;5.93;;;;;;;;;;5138116;28;20228;-71
2021/06/11 02:59:18;;;;;;;6.27;5.57;;;;;;;;;;5137684;28;20217;-70
2021/06/11 03:01:47;;;;;;;5.63;5.13;;;;;;;;;;5138014;28;20221;-70
2021/06/11 03:04:15;;;;;;;5.80;5.30;;;;;;;;;;5138192;28;20587;-70
2021/06/11 03:06:43;;;;;;;4.97;4.57;;;;;;;;;;5138046;28;20232;-70
2021/06/11 03:09:12;;;;;;;6.23;5.47;;;;;;;;;;5138357;28;20205;-70
2021/06/11 03:11:42;;;;;;;6.27;5.13;;;;;;;;;;5137035;28;20230;-70
2021/06/11 03:14:10;;;;;;;5.90;5.30;;;;;;;;;;5138075;28;20713;-70
2021/06/11 03:16:40;;;;;;;5.73;5.17;;;;;;;;;;5138477;28;20209;-70
2021/06/11 03:19:09;;;;;;;5.80;5.17;;;;;;;;;;5138609;28;20217;-70
2021/06/11 03:21:40;;;;;;;5.87;5.30;;;;;;;;;;5138191;28;20226;-70
2021/06/11 03:24:10;;;;;;;4.93;4.53;;;;;;;;;;5138426;28;20673;-70
2021/06/11 03:26:41;;;;;;;5.50;5.00;;;;;;;;;;5137759;28;20206;-70
2021/06/11 03:29:11;;;;;;;5.73;5.33;;;;;;;;;;5137878;28;20567;-70
2021/06/11 03:31:42;;;;;;;6.10;5.60;;;;;;;;;;5137588;28;20269;-70
2021/06/11 03:34:12;;;;;;;6.47;5.37;;;;;;;;;;5138178;28;20212;-70
2021/06/11 03:36:41;;;;;;;6.20;5.40;;;;;;;;;;5137830;28;20232;-70
2021/06/11 03:39:12;;;;;;;6.13;5.53;;;;;;;;;;5137630;28;20205;-70
2021/06/11 03:41:39;;;;;;;6.37;5.77;;;;;;;;;;5138035;28;20263;-70
2021/06/11 03:44:08;;;;;;;7.30;5.77;;;;;;;;;;5137605;27;20252;-70
2021/06/11 03:46:38;;;;;;;6.23;5.63;;;;;;;;;;5142158;27;20199;-70
2021/06/11 03:49:05;;;;;;;6.00;5.43;;;;;;;;;;5141743;27;20205;-70
2021/06/11 03:51:33;;;;;;;6.43;5.50;;;;;;;;;;5141820;27;20223;-70
2021/06/11 03:54:06;;;;;;;6.30;5.70;;;;;;;;;;5141499;27;20197;-70
2021/06/11 03:56:35;;;;;;;6.10;5.60;;;;;;;;;;5141579;27;20200;-70
2021/06/11 03:59:03;;;;;;;6.83;6.23;;;;;;;;;;5141034;27;20250;-70
2021/06/11 04:01:33;;;;;;;5.77;5.30;;;;;;;;;;5141238;27;20221;-70
2021/06/11 04:04:02;;;;;;;7.53;5.80;;;;;;;;;;5141653;27;20234;-70
2021/06/11 04:06:31;;;;;;;6.30;5.73;;;;;;;;;;5141673;27;20203;-71
2021/06/11 04:09:01;;;;;;;6.37;5.67;;;;;;;;;;5141678;27;20655;-70
2021/06/11 04:11:29;;;;;;;6.10;5.50;;;;;;;;;;5141011;27;20695;-70
2021/06/11 04:13:59;;;;;;;6.27;5.20;;;;;;;;;;5141204;27;20227;-70
2021/06/11 04:16:30;;;;;;;9.07;6.50;;;;;;;;;;5141235;27;20241;-70
2021/06/11 04:18:59;;;;;;;6.07;5.47;;;;;;;;;;5127765;27;20209;-70
2021/06/11 04:21:30;;;;;;;5.83;5.27;;;;;;;;;;5141066;27;20224;-70
2021/06/11 04:23:59;;;;;;;5.87;5.37;;;;;;;;;;5140880;27;20207;-70
2021/06/11 04:26:28;;;;;;;5.97;5.47;;;;;;;;;;5140607;27;20256;-71
2021/06/11 04:28:57;;;;;;;6.23;5.63;;;;;;;;;;5138917;27;20208;-70
2021/06/11 04:31:24;;;;;;;6.90;6.20;;;;;;;;;;5140458;27;20244;-69
2021/06/11 04:33:51;;;;;;;6.60;6.00;;;;;;;;;;5141806;27;20233;-70
2021/06/11 04:36:19;;;;;;;6.33;5.73;;;;;;;;;;5141222;27;20216;-66
2021/06/11 04:38:55;;;;;;;6.07;5.53;;;;;;;;;;5140657;27;20208;-66
2021/06/11 04:41:22;;;;;;;7.23;6.53;;;;;;;;;;5140566;27;20582;-66
2021/06/11 04:43:50;;;;;;;6.87;6.20;;;;;;;;;;5140107;27;20204;-67
2021/06/11 04:46:17;;;;;;;8.70;6.30;;;;;;;;;;5140542;27;20566;-65
2021/06/11 04:48:45;;;;;;;9.00;6.70;;;;;;;;;;5140297;27;20582;-66
2021/06/11 04:51:13;;;;;;;7.30;5.90;;;;;;;;;;5140477;27;20641;-65
2021/06/11 04:53:40;;;;;;;7.50;6.73;;;;;;;;;;5140559;27;20232;-64
2021/06/11 04:56:09;;;;;;;7.17;6.37;;;;;;;;;;5140005;27;20207;-64
2021/06/11 04:58:37;;;;;;;6.80;6.10;;;;;;;;;;5139703;27;20203;-66
2021/06/11 05:01:04;;;;;;;6.50;5.90;;;;;;;;;;5139541;27;20262;-65
2021/06/11 05:03:31;;;;;;;7.03;6.33;;;;;;;;;;5140211;27;20210;-66
2021/06/11 05:06:00;;;;;;;8.93;6.20;;;;;;;;;;5137008;27;20216;-66
2021/06/11 05:08:27;;;;;;;6.77;6.13;;;;;;;;;;5139219;27;20659;-66
2021/06/11 05:10:55;;;;;;;7.07;6.07;;;;;;;;;;5139157;27;20204;-66
2021/06/11 05:13:24;;;;;;;7.23;6.40;;;;;;;;;;5136912;27;20203;-66
2021/06/11 05:15:51;;;;;;;6.27;5.70;;;;;;;;;;5139180;27;20238;-66
2021/06/11 05:18:25;;;;;;;6.80;5.83;;;;;;;;;;5139259;27;20218;-66
2021/06/11 05:20:53;;;;;;;6.80;6.20;;;;;;;;;;5139871;27;20204;-67
2021/06/11 05:23:20;;;;;;;5.87;5.37;;;;;;;;;;5139542;27;20209;-66
2021/06/11 05:25:48;;;;;;;6.80;6.13;;;;;;;;;;5139337;27;20273;-66
2021/06/11 05:28:16;;;;;;;6.77;5.50;;;;;;;;;;5139029;27;20210;-65
2021/06/11 05:30:44;;;;;;;6.87;5.90;;;;;;;;;;5139101;27;20245;-66
2021/06/11 05:33:12;;;;;;;7.63;5.50;;;;;;;;;;5139319;27;20274;-65
2021/06/11 05:35:39;;;;;;;6.63;6.10;;;;;;;;;;5139265;27;20205;-66
2021/06/11 05:38:07;;;;;;;8.57;6.07;;;;;;;;;;5139376;27;20263;-65
2021/06/11 05:40:35;;;;;;;7.40;6.50;;;;;;;;;;5139397;27;20258;-65
2021/06/11 05:43:02;;;;;;;6.93;6.37;;;;;;;;;;5138895;27;20252;-67
2021/06/11 05:45:30;;;;;;;7.17;6.17;;;;;;;;;;5139507;27;20311;-66
2021/06/11 05:47:59;;;;;;;7.50;6.70;;;;;;;;;;5139314;27;20210;-65
2021/06/11 05:50:27;;;;;;;6.90;6.20;;;;;;;;;;5139354;27;20665;-66
2021/06/11 05:52:54;;;;;;;6.47;5.80;;;;;;;;;;5139019;27;20230;-66
2021/06/11 05:55:21;;;;;;;7.13;6.13;;;;;;;;;;5139043;27;20241;-66
2021/06/11 05:57:49;;;;;;;9.63;5.97;;;;;;;;;;5138703;27;20716;-66
2021/06/11 06:00:17;;;;;;;7.17;6.57;;;;;;;;;;5134582;27;20207;-67
2021/06/11 06:02:44;;;;;;;7.50;6.80;;;;;;;;;;5133175;27;20239;-67
2021/06/11 06:05:14;;;;;;;9.57;6.83;;;;;;;;;;5136528;27;20230;-67
2021/06/11 06:07:41;;;;;;;8.00;6.13;;;;;;;;;;5131699;27;20544;-67
2021/06/11 06:10:09;;;;;;;7.30;6.53;;;;;;;;;;5129720;27;20200;-65
2021/06/11 06:12:37;;;;;;;7.50;6.50;;;;;;;;;;5131419;27;20223;-67
2021/06/11 06:15:05;;;;;;;8.13;7.00;;;;;;;;;;5130960;27;20195;-67
2021/06/11 06:17:35;;;;;;;7.13;6.53;;;;;;;;;;5132435;27;20265;-67
2021/06/11 06:20:04;;;;;;;7.70;6.67;;;;;;;;;;5132713;27;20204;-68
2021/06/11 06:22:41;;;;;;;8.03;6.73;;;;;;;;;;5130553;27;20217;-69
2021/06/11 06:25:08;;;;;;;7.50;6.37;;;;;;;;;;5128479;27;20269;-66
2021/06/11 06:27:36;;;;;;;7.67;6.97;;;;;;;;;;5130118;27;20201;-67
2021/06/11 06:30:04;;;;;;;7.60;6.83;;;;;;;;;;5126700;28;20611;-70
2021/06/11 06:32:31;;;;;;;6.70;6.10;;;;;;;;;;5135928;27;20234;-68
2021/06/11 06:34:59;;;;;;;10.93;6.50;;;;;;;;;;5136966;27;20255;-69
2021/06/11 06:37:27;;;;;;;10.30;7.20;;;;;;;;;;5138574;27;20203;-68
2021/06/11 06:39:56;;;;;;;8.17;6.53;;;;;;;;;;5138073;27;20250;-68
2021/06/11 06:42:23;;;;;;;8.03;6.63;;;;;;;;;;5137779;28;20229;-69
2021/06/11 06:44:50;;;;;;;7.67;6.87;;;;;;;;;;5137756;28;20264;-70
2021/06/11 06:47:18;;;;;;;7.27;6.20;;;;;;;;;;5138072;28;20209;-71
2021/06/11 06:49:45;;;;;;;7.47;6.67;;;;;;;;;;5137871;28;20202;-70
2021/06/11 06:52:13;;;;;;;11.03;6.37;;;;;;;;;;5137902;28;20316;-70
2021/06/11 06:54:42;;;;;;;13.70;9.23;;;;;;;;;;5135260;28;20194;-71
2021/06/11 06:57:11;;;;;;;7.40;6.67;;;;;;;;;;5134970;28;20203;-72
2021/06/11 06:59:38;;;;;;;10.30;7.30;;;;;;;;;;5138083;28;20237;-72
2021/06/11 07:02:06;;;;;;;8.47;7.43;;;;;;;;;;5137764;28;20215;-70
2021/06/11 07:04:33;;;;;;;7.00;6.40;;;;;;;;;;5138237;28;20722;-71
2021/06/11 07:07:01;;;;;;;8.33;7.37;;;;;;;;;;5136847;28;20206;-72
2021/06/11 07:09:28;;;;;;;8.73;6.40;;;;;;;;;;5137149;27;21308;-71
2021/06/11 07:11:56;;;;;;;10.67;7.30;;;;;;;;;;5133607;28;20377;-72
2021/06/11 07:14:27;;;;;;;8.40;7.17;;;;;;;;;;5129378;28;20203;-71
2021/06/11 07:16:54;;;;;;;8.90;6.77;;;;;;;;;;5132873;27;20249;-72
2021/06/11 07:19:21;;;;;;;11.97;7.13;;;;;;;;;;5134070;27;20207;-69
2021/06/11 07:21:49;;;;;;;9.07;6.40;;;;;;;;;;5139951;27;20226;-71
2021/06/11 07:24:16;;;;;;;8.37;7.57;;;;;;;;;;5136373;27;20617;-71
2021/06/11 07:26:43;;;;;;;8.63;7.73;;;;;;;;;;5136817;27;20346;-68
2021/06/11 07:29:10;;;;;;;8.67;7.70;;;;;;;;;;5132095;27;20215;-70
2021/06/11 07:31:39;;;;;;;8.47;7.57;;;;;;;;;;5134304;27;20283;-69
2021/06/11 07:34:06;;;;;;;9.50;7.90;;;;;;;;;;5138226;27;20193;-69
2021/06/11 07:36:33;;;;;;;9.03;8.13;;;;;;;;;;5127680;27;20300;-70
2021/06/11 07:39:01;;;;;;;8.77;7.80;;;;;;;;;;5134697;27;20205;-70
2021/06/11 07:41:28;;;;;;;8.40;6.97;;;;;;;;;;5135229;27;20236;-71
2021/06/11 07:43:55;;;;;;;9.87;8.20;;;;;;;;;;5133842;27;20319;-70
2021/06/11 07:46:22;;;;;;;11.10;7.60;;;;;;;;;;5134472;27;20762;-69
2021/06/11 07:48:51;;;;;;;10.03;7.30;;;;;;;;;;5135615;27;20212;-69
2021/06/11 07:51:19;;;;;;;9.33;7.60;;;;;;;;;;5136824;27;20223;-71
2021/06/11 07:53:46;;;;;;;10.77;7.53;;;;;;;;;;5135976;27;20199;-71
2021/06/11 07:56:13;;;;;;;9.33;7.40;;;;;;;;;;5134817;27;20208;-70
2021/06/11 07:58:42;;;;;;;13.00;7.23;;;;;;;;;;5133240;27;20207;-70
2021/06/11 08:01:09;;;;;;;9.07;7.03;;;;;;;;;;5133505;27;20193;-72
2021/06/11 08:03:36;;;;;;;9.03;7.67;;;;;;;;;;5130723;27;20201;-71
2021/06/11 08:06:05;;;;;;;8.07;6.73;;;;;;;;;;5137716;27;20256;-71
2021/06/11 08:08:32;;;;;;;11.53;6.87;;;;;;;;;;5138913;27;20304;-72
2021/06/11 08:11:00;;;;;;;8.93;7.27;;;;;;;;;;5126664;27;20256;-71
2021/06/11 08:13:27;;;;;;;8.57;7.77;;;;;;;;;;5129764;27;20225;-72
2021/06/11 08:15:54;;;;;;;8.13;7.23;;;;;;;;;;5131385;27;20193;-69
2021/06/11 08:18:21;;;;;;;10.60;7.13;;;;;;;;;;5131189;27;20655;-71
2021/06/11 08:20:49;;;;;;;7.53;6.83;;;;;;;;;;5130494;27;20649;-71
2021/06/11 08:23:17;;;;;;;10.43;7.03;;;;;;;;;;5132641;27;20213;-75
2021/06/11 08:25:44;;;;;;;9.43;7.73;;;;;;;;;;5132402;27;20208;-71
2021/06/11 08:28:12;;;;;;;7.57;6.87;;;;;;;;;;5134062;27;20196;-72
2021/06/11 08:30:42;;;;;;;10.00;8.50;;;;;;;;;;5132702;27;20228;-71
2021/06/11 08:33:13;;;;;;;8.87;7.97;;;;;;;;;;5130402;27;20312;-72
2021/06/11 08:35:40;;;;;;;8.33;7.63;;;;;;;;;;5128734;27;20204;-70
2021/06/11 08:38:07;;;;;;;10.27;7.40;;;;;;;;;;5126833;27;20213;-72
2021/06/11 08:40:36;;;;;;;8.07;7.37;;;;;;;;;;5128268;27;20205;-71
2021/06/11 08:43:03;;;;;;;9.57;7.73;;;;;;;;;;5131554;27;20221;-71
2021/06/11 08:45:30;;;;;;;9.77;8.77;;;;;;;;;;5128581;27;20268;-72
2021/06/11 08:47:58;;;;;;;8.97;8.10;;;;;;;;;;5132152;27;20256;-71
2021/06/11 08:50:27;;;;;;;11.53;8.07;;;;;;;;;;5129373;27;20193;-70
2021/06/11 08:52:55;;;;;;;7.87;7.17;;;;;;;;;;5128526;27;20216;-70
2021/06/11 08:55:23;;;;;;;10.90;8.57;;;;;;;;;;5129681;27;20199;-71
2021/06/11 08:57:52;;;;;;;7.30;6.70;;;;;;;;;;5133004;27;20575;-70
2021/06/11 09:00:20;;;;;;;8.63;7.80;;;;;;;;;;5128988;27;20202;-71
2021/06/11 09:03:06;;;;;;;8.63;7.33;;;;;;;;;;5131267;27;20246;-71
2021/06/11 09:05:33;;;;;;;9.70;7.97;;;;;;;;;;5132323;27;20260;-71
2021/06/11 09:08:10;;;;;;;7.80;7.07;;;;;;;;;;5136671;27;20205;-71
2021/06/11 09:10:38;;;;;;;7.97;7.17;;;;;;;;;;5132066;27;20692;-71
2021/06/11 09:13:06;;;;;;;9.30;7.57;;;;;;;;;;5132302;27;20220;-71
2021/06/11 09:15:34;;;;;;;7.80;7.00;;;;;;;;;;5130857;27;20210;-72
2021/06/11 09:18:02;;;;;;;8.73;7.10;;;;;;;;;;5134849;27;20681;-72
2021/06/11 09:20:31;;;;;;;7.40;6.80;;;;;;;;;;5136076;27;20192;-72
2021/06/11 09:23:00;;;;;;;11.33;8.53;;;;;;;;;;5135793;27;20274;-73
2021/06/11 09:25:28;;;;;;;8.63;7.30;;;;;;;;;;5130196;27;20572;-72
2021/06/11 09:27:56;;;;;;;7.80;7.10;;;;;;;;;;5130976;27;20196;-72
2021/06/11 09:30:30;;;;;;;8.77;7.80;;;;;;;;;;5129350;27;20282;-72
2021/06/11 09:32:58;;;;;;;7.37;6.40;;;;;;;;;;5130385;27;20276;-71
2021/06/11 09:35:45;;;;;;;8.93;7.60;;;;;;;;;;5091439;27;20212;-72
2021/06/11 09:38:14;;;;;;;10.23;7.40;;;;;;;;;;5129907;27;20223;-71
2021/06/11 09:40:42;;;;;;;9.90;6.57;;;;;;;;;;5135333;27;20835;-71
2021/06/11 09:43:09;;;;;;;8.33;7.53;;;;;;;;;;5132117;27;20241;-71
2021/06/11 09:45:38;;;;;;;7.83;7.03;;;;;;;;;;5129012;27;20228;-71
2021/06/11 09:48:19;;;;;;;7.37;6.60;;;;;;;;;;5131704;27;20240;-72
2021/06/11 09:50:50;;;;;;;7.40;6.70;;;;;;;;;;5129492;27;20197;-70
2021/06/11 09:53:22;;;;;;;7.07;6.00;;;;;;;;;;5130773;27;20194;-70
2021/06/11 09:55:51;;;;;;;6.70;6.10;;;;;;;;;;5129354;27;20333;-70
2021/06/11 09:58:20;;;;;;;7.50;6.80;;;;;;;;;;5130769;27;20208;-70
2021/06/11 10:00:52;;;;;;;8.83;5.87;;;;;;;;;;5127184;27;20321;-70
2021/06/11 10:03:20;;;;;;;7.10;6.40;;;;;;;;;;5129008;27;20266;-70
2021/06/11 10:05:48;;;;;;;7.03;6.43;;;;;;;;;;5132016;27;20210;-70
2021/06/11 10:08:16;;;;;;;6.67;5.83;;;;;;;;;;5129214;27;20297;-70
2021/06/11 10:10:44;;;;;;;8.67;6.70;;;;;;;;;;5133125;27;20253;-70
2021/06/11 10:13:12;;;;;;;6.43;5.80;;;;;;;;;;5134497;27;20225;-70
2021/06/11 10:15:40;;;;;;;7.23;6.40;;;;;;;;;;5127623;27;20211;-70
2021/06/11 10:18:08;;;;;;;6.17;5.40;;;;;;;;;;5129906;27;20207;-70
2021/06/11 10:20:36;;;;;;;7.63;6.20;;;;;;;;;;5132837;27;20211;-69
2021/06/11 10:23:04;;;;;;;6.50;5.77;;;;;;;;;;5128063;27;20296;-69
2021/06/11 10:25:31;;;;;;;6.00;5.40;;;;;;;;;;5123888;27;20209;-69
2021/06/11 10:28:00;;;;;;;5.90;5.27;;;;;;;;;;5128780;27;20295;-69
2021/06/11 10:30:28;;;;;;;5.97;5.47;;;;;;;;;;5132999;27;20236;-69
2021/06/11 10:32:56;;;;;;;7.00;5.40;;;;;;;;;;5126499;27;20275;-69
2021/06/11 10:35:44;;;;;;;7.63;6.70;;;;;;;;;;5127678;27;20216;-68
2021/06/11 10:38:12;;;;;;;10.07;6.10;;;;;;;;;;5129819;27;20256;-69
2021/06/11 10:40:41;;;;;;;5.83;5.27;;;;;;;;;;5136015;27;20211;-69
2021/06/11 10:43:21;;;;;;;5.77;5.27;;;;;;;;;;5130814;28;20252;-68
2021/06/11 10:45:49;;;;;;;5.73;5.10;;;;;;;;;;5132015;28;20260;-70
2021/06/11 10:48:17;;;;;;;5.60;5.10;;;;;;;;;;5130072;28;20203;-69
2021/06/11 10:50:46;;;;;;;7.37;4.97;;;;;;;;;;5125416;28;20331;-69
2021/06/11 10:53:26;;;;;;;8.53;5.23;;;;;;;;;;5129289;27;20235;-69
2021/06/11 10:56:12;;;;;;;5.93;5.37;;;;;;;;;;5136873;27;20265;-69
2021/06/11 10:58:40;;;;;;;5.93;5.33;;;;;;;;;;5136226;27;20599;-71
2021/06/11 11:01:24;;;;;;;5.57;5.07;;;;;;;;;;5135312;27;20714;-70
2021/06/11 11:03:51;;;;;;;8.83;5.77;;;;;;;;;;5135403;27;20323;-70
2021/06/11 11:06:27;;;;;;;6.77;5.60;;;;;;;;;;5132348;27;20257;-69
2021/06/11 11:08:55;;;;;;;4.90;4.50;;;;;;;;;;5136819;27;20202;-68
2021/06/11 11:11:26;;;;;;;5.57;5.07;;;;;;;;;;5136203;27;20234;-70
2021/06/11 11:13:53;;;;;;;8.70;5.40;;;;;;;;;;5129830;27;20259;-70
2021/06/11 11:16:22;;;;;;;7.20;5.37;;;;;;;;;;5132271;27;20204;-69
2021/06/11 11:18:49;;;;;;;6.33;5.80;;;;;;;;;;5123180;27;20240;-68
2021/06/11 11:21:23;;;;;;;6.27;5.20;;;;;;;;;;5129078;27;20224;-68
2021/06/11 11:23:53;;;;;;;6.57;5.87;;;;;;;;;;5133807;27;20653;-67
2021/06/11 11:26:20;;;;;;;6.83;6.23;;;;;;;;;;5137940;27;20210;-67
2021/06/11 11:28:47;;;;;;;6.50;5.90;;;;;;;;;;5122260;27;20573;-66
2021/06/11 11:31:15;;;;;;;6.83;6.23;;;;;;;;;;5123733;27;20247;-69
2021/06/11 11:33:42;;;;;;;7.63;6.50;;;;;;;;;;5123954;27;20287;-68
2021/06/11 11:36:10;;;;;;;6.83;5.60;;;;;;;;;;5127139;27;20262;-70
2021/06/11 11:38:37;;;;;;;6.77;6.10;;;;;;;;;;5125215;27;20254;-71
2021/06/11 11:41:06;;;;;;;6.10;5.43;;;;;;;;;;5126188;27;20214;-70
2021/06/11 11:43:33;;;;;;;6.00;5.50;;;;;;;;;;5126584;27;20296;-71
2021/06/11 11:46:00;;;;;;;6.30;5.20;;;;;;;;;;5127571;27;20214;-70
2021/06/11 11:48:28;;;;;;;8.30;5.87;;;;;;;;;;5128001;27;20747;-70
2021/06/11 11:50:55;;;;;;;5.87;5.27;;;;;;;;;;5125079;27;20629;-71
2021/06/11 11:53:24;;;;;;;6.03;5.47;;;;;;;;;;5127577;27;20236;-71
2021/06/11 11:55:51;;;;;;;8.13;7.33;;;;;;;;;;5124971;27;20206;-70
2021/06/11 11:58:23;;;;;;;6.50;5.83;;;;;;;;;;5132428;27;20259;-71
2021/06/11 12:00:50;;;;;;;5.80;5.30;;;;;;;;;;5135892;27;20648;-71
2021/06/11 12:03:18;;;;;;;6.23;5.63;;;;;;;;;;5132212;27;20257;-71
2021/06/11 12:05:46;;;;;;;6.07;5.67;;;;;;;;;;5134242;27;20209;-70
2021/06/11 12:08:13;;;;;;;6.23;5.70;;;;;;;;;;5131492;27;20232;-70
2021/06/11 12:10:40;;;;;;;6.27;5.67;;;;;;;;;;5135171;27;20243;-70
2021/06/11 12:13:07;;;;;;;5.47;4.97;;;;;;;;;;5130536;27;20227;-70
2021/06/11 12:15:36;;;;;;;5.63;5.10;;;;;;;;;;5130614;27;20201;-71
2021/06/11 12:18:04;;;;;;;6.13;5.53;;;;;;;;;;5128442;27;20605;-71
2021/06/11 12:20:32;;;;;;;7.35;5.97;;;;;;;;;;5131924;27;20222;-71
2021/06/11 12:23:02;;;;;;;6.60;5.97;;;;;;;;;;5131082;27;20234;-71
2021/06/11 12:25:29;;;;;;;9.37;7.03;;;;;;;;;;5130259;27;20241;-72
2021/06/11 12:27:56;;;;;;;5.93;5.43;;;;;;;;;;5131946;27;20281;-70
2021/06/11 12:30:24;;;;;;;5.40;4.90;;;;;;;;;;5135788;27;20227;-70
2021/06/11 12:32:53;;;;;;;5.83;5.33;;;;;;;;;;5132808;27;20251;-70
2021/06/11 12:35:20;;;;;;;8.90;6.23;;;;;;;;;;5135018;27;20567;-70
2021/06/11 12:37:47;;;;;;;5.60;5.10;;;;;;;;;;5133433;27;20225;-71
2021/06/11 12:40:15;;;;;;;5.97;4.83;;;;;;;;;;5134030;27;20214;-71
2021/06/11 12:42:45;;;;;;;6.17;5.07;;;;;;;;;;5133700;27;20314;-70
2021/06/11 12:45:13;;;;;;;6.27;5.67;;;;;;;;;;5133614;27;20204;-70
2021/06/11 12:47:40;;;;;;;5.90;5.33;;;;;;;;;;5125943;27;20236;-70
2021/06/11 12:50:10;;;;;;;6.03;5.43;;;;;;;;;;5122510;27;20573;-70
2021/06/11 12:52:37;;;;;;;5.80;5.30;;;;;;;;;;5123423;27;20227;-71
2021/06/11 12:55:05;;;;;;;5.40;5.00;;;;;;;;;;5124278;27;20204;-70
2021/06/11 12:57:36;;;;;;;6.17;5.17;;;;;;;;;;5123757;27;20208;-71
2021/06/11 13:00:04;;;;;;;4.85;4.47;;;;;;;;;;5127107;27;20262;-69
2021/06/11 13:02:31;;;;;;;5.70;5.20;;;;;;;;;;5133386;27;20690;-70
2021/06/11 13:04:58;;;;;;;7.65;4.78;;;;;;;;;;5131192;27;20222;-70
2021/06/11 13:07:27;;;;;;;5.78;5.38;;;;;;;;;;5134780;27;20232;-71
2021/06/11 13:09:54;;;;;;;7.25;4.95;;;;;;;;;;5133022;27;20621;-69
2021/06/11 13:12:22;;;;;;;4.93;4.53;;;;;;;;;;5136407;27;20253;-70
2021/06/11 13:14:49;;;;;;;7.13;5.03;;;;;;;;;;5132515;27;20207;-70
2021/06/11 13:17:16;;;;;;;5.93;5.32;;;;;;;;;;5137396;27;20207;-70
2021/06/11 13:19:43;;;;;;;4.93;4.60;;;;;;;;;;5136046;27;20773;-71
2021/06/11 13:22:10;;;;;;;5.43;4.97;;;;;;;;;;5138259;27;20235;-69
2021/06/11 13:24:40;;;;;;;8.02;6.13;;;;;;;;;;5136443;27;20214;-70
2021/06/11 13:27:07;;;;;;;5.50;5.05;;;;;;;;;;5137554;27;20227;-70
2021/06/11 13:29:34;;;;;;;5.93;4.85;;;;;;;;;;5135770;27;20280;-70
2021/06/11 13:32:01;;;;;;;5.40;5.00;;;;;;;;;;5137952;27;20582;-71
2021/06/11 13:34:29;;;;;;;6.50;5.57;;;;;;;;;;5133253;27;20666;-70
2021/06/11 13:36:56;;;;;;;5.65;5.25;;;;;;;;;;5131057;27;21010;-70
2021/06/11 13:39:23;;;;;;;8.27;5.18;;;;;;;;;;5131324;27;20200;-70
2021/06/11 13:41:52;;;;;;;5.47;5.07;;;;;;;;;;5127954;27;20219;-70
2021/06/11 13:44:19;;;;;;;5.28;4.88;;;;;;;;;;5130809;27;20572;-70
2021/06/11 13:46:46;;;;;;;5.03;4.63;;;;;;;;;;5127598;27;20221;-69
2021/06/11 13:49:13;;;;;;;5.30;4.90;;;;;;;;;;5131879;27;20213;-70
2021/06/11 13:51:41;;;;;;;5.35;4.90;;;;;;;;;;5127110;27;20223;-69
2021/06/11 13:54:08;;;;;;;5.43;5.00;;;;;;;;;;5129888;27;20611;-69
2021/06/11 13:56:35;;;;;;;5.18;4.75;;;;;;;;;;5131359;27;20203;-69
2021/06/11 13:59:04;;;;;;;5.07;4.68;;;;;;;;;;5132998;27;20188;-69
2021/06/11 14:01:31;;;;;;;5.72;5.20;;;;;;;;;;5133255;27;20313;-69
2021/06/11 14:03:59;;;;;;;4.45;4.15;;;;;;;;;;5134468;27;20294;-69
2021/06/11 14:06:26;;;;;;;5.57;4.28;;;;;;;;;;5130469;27;20297;-70
2021/06/11 14:08:53;;;;;;;5.13;4.72;;;;;;;;;;5129113;27;20244;-70
2021/06/11 14:11:20;;;;;;;4.00;3.65;;;;;;;;;;5127292;27;20224;-70
2021/06/11 14:13:48;;;;;;;4.47;4.18;;;;;;;;;;5127836;27;20192;-70
2021/06/11 14:16:17;;;;;;;4.88;4.47;;;;;;;;;;5129309;27;20263;-71
2021/06/11 14:18:44;;;;;;;4.68;4.22;;;;;;;;;;5127001;27;20196;-70
2021/06/11 14:21:11;;;;;;;5.30;4.80;;;;;;;;;;5129790;27;20197;-71
2021/06/11 14:23:39;;;;;;;5.15;4.65;;;;;;;;;;5125961;27;20218;-70
2021/06/11 14:26:06;;;;;;;7.85;4.43;;;;;;;;;;5129073;27;20199;-70
2021/06/11 14:28:33;;;;;;;4.68;4.28;;;;;;;;;;5129504;27;20252;-70
2021/06/11 14:31:01;;;;;;;4.55;4.20;;;;;;;;;;5132625;27;20239;-70
2021/06/11 14:33:29;;;;;;;7.47;4.50;;;;;;;;;;5129088;27;20299;-69
2021/06/11 14:35:57;;;;;;;4.55;4.20;;;;;;;;;;5124897;27;20219;-70
2021/06/11 14:38:24;;;;;;;4.43;3.92;;;;;;;;;;5129302;27;20212;-70
2021/06/11 14:40:51;;;;;;;4.15;3.85;;;;;;;;;;5132923;27;20204;-70
2021/06/11 14:43:18;;;;;;;4.57;4.18;;;;;;;;;;5128311;28;20651;-71
2021/06/11 14:45:46;;;;;;;4.95;4.38;;;;;;;;;;5131165;28;20197;-70
2021/06/11 14:48:19;;;;;;;4.65;4.30;;;;;;;;;;5128185;28;20258;-70
2021/06/11 14:50:48;;;;;;;7.07;3.90;;;;;;;;;;5127208;28;20207;-70